Velkommen til min vejrside, der er mangler og fejl som bliver opdateret. Kom snart tilbage og få vejret - Welcome to our website - Welkom op onze vernieuwde website
Bienvenue sur notre site web - Willkommen auf unserer Website - Check our progress frequently. Prüfen Sie unsere Fortschritte regelmäßig. Consultez notre progression fréquemment. Komt u straks nog eens terug


vejr3>nv more information Vejr3>NV


3 timers nedbørs radar more information rain snow radar


besøg nogle andre vejrsider:

Template dokumentation
og downloads

And another site


weather underground historie, tekst side

dagens sammenfatning af december 08, 2017 enheder:  både    engelsk   metrisk
« forgående dag
næste dag »
dagens ugenligt månedlig årligt tilpasset
  høj: lav: gennemsnit:
temperatur: TemperatureC °F /  -17.8 °C 2.0 °F /  -16.7 °C 3.8 °F /  -15.7 °C
dugpunkt: DewpointC °F /  -17.8 °C 0.7 °F /  -17.4 °C 2.3 °F /  -16.5 °C
fugtighed: Humidity % 85 % 90 %
vindhastighed: WindSpeedKMH mph /  0 km/h - 21.9 mph /  35.2 km/h
vindstød: WindSpeedGustKMH mph /  0 km/h - -
vind:- - SW
lufttryk: PressurehPa in /  0 hPa 992.1 in /  33592.5 hPa -
nedbør: 0.0 in /  0 mm    
Historical Graphs
 
 
tabeldata for december 08, 2017
tid temperatur dugpunkt lufttryk vind vindhastighed vindstød fugtighed regn (timme)
TemperatureC °F /  -17.8 °C DewpointC °F /  -17.8 °C PressurehPa in /  0 hPa Calm     Humidity % HourlyPrecipMM in /  0 mm
00:08 5.6 °F /  -14.7 °C 5.1 °F /  -14.9 °C 992.8 in /  33616.2 hPa South 16.7 mph /  26.9 km/h 16.7 mph /  26.9 km/h 97 % 0.0 in /  0 mm
00:13 5.5 °F /  -14.7 °C 5.1 °F /  -14.9 °C 992.8 in /  33616.2 hPa SSW 17.7 mph /  28.5 km/h 17.7 mph /  28.5 km/h 97 % 0.0 in /  0 mm
00:18 5.5 °F /  -14.7 °C 5.1 °F /  -14.9 °C 992.8 in /  33616.2 hPa South 18.5 mph /  29.8 km/h 18.5 mph /  29.8 km/h 97 % 0.0 in /  0 mm
00:23 5.5 °F /  -14.7 °C 5.1 °F /  -14.9 °C 992.8 in /  33616.2 hPa SSE 19.3 mph /  31.1 km/h 19.3 mph /  31.1 km/h 97 % 0.0 in /  0 mm
00:28 5.5 °F /  -14.7 °C 5.1 °F /  -14.9 °C 992.8 in /  33616.2 hPa SW 18.5 mph /  29.8 km/h 18.5 mph /  29.8 km/h 97 % 0.0 in /  0 mm
00:43 5.5 °F /  -14.7 °C 5.1 °F /  -14.9 °C 992.8 in /  33616.2 hPa SSW 16.7 mph /  26.9 km/h 16.7 mph /  26.9 km/h 97 % 0.0 in /  0 mm
00:53 5.5 °F /  -14.7 °C 5.1 °F /  -14.9 °C 992.8 in /  33616.2 hPa SW 20.4 mph /  32.8 km/h 20.4 mph /  32.8 km/h 97 % 0.0 in /  0 mm
01:03 5.5 °F /  -14.7 °C 5.1 °F /  -14.9 °C 992.8 in /  33616.2 hPa SSW 25.9 mph /  41.7 km/h 25.9 mph /  41.7 km/h 97 % 0.0 in /  0 mm
01:08 5.6 °F /  -14.7 °C 4.9 °F /  -15.1 °C 992.8 in /  33616.2 hPa WSW 22.2 mph /  35.7 km/h 22.2 mph /  35.7 km/h 96 % 0.0 in /  0 mm
01:18 5.6 °F /  -14.7 °C 4.9 °F /  -15.1 °C 992.8 in /  33616.2 hPa SW 25.9 mph /  41.7 km/h 25.9 mph /  41.7 km/h 96 % 0.0 in /  0 mm
01:23 5.6 °F /  -14.7 °C 4.9 °F /  -15.1 °C 992.8 in /  33616.2 hPa SSW 11.3 mph /  18.2 km/h 11.3 mph /  18.2 km/h 96 % 0.0 in /  0 mm
01:33 5.6 °F /  -14.7 °C 4.8 °F /  -15.1 °C 992.8 in /  33616.2 hPa SSW 18.5 mph /  29.8 km/h 18.5 mph /  29.8 km/h 95 % 0.0 in /  0 mm
01:38 5.6 °F /  -14.7 °C 4.8 °F /  -15.1 °C 992.8 in /  33616.2 hPa South 31.5 mph /  50.7 km/h 31.5 mph /  50.7 km/h 95 % 0.0 in /  0 mm
01:43 5.6 °F /  -14.7 °C 4.8 °F /  -15.1 °C 992.8 in /  33616.2 hPa SW 20.4 mph /  32.8 km/h 20.4 mph /  32.8 km/h 95 % 0.0 in /  0 mm
01:53 5.6 °F /  -14.7 °C 4.7 °F /  -15.2 °C 992.4 in /  33602.7 hPa SW 18.5 mph /  29.8 km/h 18.5 mph /  29.8 km/h 94 % 0.0 in /  0 mm
02:08 5.6 °F /  -14.7 °C 4.5 °F /  -15.3 °C 992.4 in /  33602.7 hPa South 27.8 mph /  44.7 km/h 27.8 mph /  44.7 km/h 93 % 0.0 in /  0 mm
02:13 5.5 °F /  -14.7 °C 4.4 °F /  -15.3 °C 992.8 in /  33616.2 hPa WSW 20.4 mph /  32.8 km/h 20.4 mph /  32.8 km/h 93 % 0.0 in /  0 mm
02:23 5.4 °F /  -14.8 °C 4.3 °F /  -15.4 °C 992.4 in /  33602.7 hPa SW 22.2 mph /  35.7 km/h 22.2 mph /  35.7 km/h 93 % 0.0 in /  0 mm
02:38 5.3 °F /  -14.8 °C 4.1 °F /  -15.5 °C 992.4 in /  33602.7 hPa SW 25.9 mph /  41.7 km/h 25.9 mph /  41.7 km/h 92 % 0.0 in /  0 mm
02:43 5.2 °F /  -14.9 °C 4.1 °F /  -15.5 °C 992.4 in /  33602.7 hPa WSW 16.7 mph /  26.9 km/h 16.7 mph /  26.9 km/h 92 % 0.0 in /  0 mm
02:53 5.2 °F /  -14.9 °C 4.0 °F /  -15.6 °C 992.8 in /  33616.2 hPa WSW 18.5 mph /  29.8 km/h 18.5 mph /  29.8 km/h 92 % 0.0 in /  0 mm
02:58 5.1 °F /  -14.9 °C 3.9 °F /  -15.6 °C 992.4 in /  33602.7 hPa WSW 18.5 mph /  29.8 km/h 18.5 mph /  29.8 km/h 92 % 0.0 in /  0 mm
03:03 5.1 °F /  -14.9 °C 3.9 °F /  -15.6 °C 992.4 in /  33602.7 hPa SW 11.3 mph /  18.2 km/h 11.3 mph /  18.2 km/h 92 % 0.0 in /  0 mm
03:08 4.9 °F /  -15.1 °C 3.8 °F /  -15.7 °C 992.4 in /  33602.7 hPa SW 18.5 mph /  29.8 km/h 18.5 mph /  29.8 km/h 92 % 0.0 in /  0 mm
03:18 4.9 °F /  -15.1 °C 3.7 °F /  -15.7 °C 992.4 in /  33602.7 hPa SSW 14.8 mph /  23.8 km/h 14.8 mph /  23.8 km/h 92 % 0.0 in /  0 mm
03:23 4.8 °F /  -15.1 °C 3.7 °F /  -15.7 °C 992.4 in /  33602.7 hPa WSW 18.5 mph /  29.8 km/h 18.5 mph /  29.8 km/h 92 % 0.0 in /  0 mm
03:28 4.8 °F /  -15.1 °C 3.6 °F /  -15.8 °C 992.4 in /  33602.7 hPa WSW 22.2 mph /  35.7 km/h 22.2 mph /  35.7 km/h 92 % 0.0 in /  0 mm
03:33 4.8 °F /  -15.1 °C 3.6 °F /  -15.8 °C 992.4 in /  33602.7 hPa SSW 18.5 mph /  29.8 km/h 18.5 mph /  29.8 km/h 92 % 0.0 in /  0 mm
03:38 4.7 °F /  -15.2 °C 3.6 °F /  -15.8 °C 992.4 in /  33602.7 hPa WNW 25.9 mph /  41.7 km/h 25.9 mph /  41.7 km/h 92 % 0.0 in /  0 mm
03:48 4.6 °F /  -15.2 °C 3.4 °F /  -15.9 °C 992.4 in /  33602.7 hPa SSW 19.3 mph /  31.1 km/h 19.3 mph /  31.1 km/h 92 % 0.0 in /  0 mm
03:53 4.6 °F /  -15.2 °C 3.4 °F /  -15.9 °C 992.4 in /  33602.7 hPa SSW 22.2 mph /  35.7 km/h 22.2 mph /  35.7 km/h 92 % 0.0 in /  0 mm
03:58 4.6 °F /  -15.2 °C 3.4 °F /  -15.9 °C 992.4 in /  33602.7 hPa West 24.1 mph /  38.8 km/h 24.1 mph /  38.8 km/h 92 % 0.0 in /  0 mm
04:03 4.6 °F /  -15.2 °C 3.4 °F /  -15.9 °C 992.4 in /  33602.7 hPa SW 20.9 mph /  33.6 km/h 20.9 mph /  33.6 km/h 92 % 0.0 in /  0 mm
04:16 4.6 °F /  -15.2 °C 3.4 °F /  -15.9 °C 992.1 in /  33592.5 hPa SSW 27.8 mph /  44.7 km/h 27.8 mph /  44.7 km/h 92 % 0.0 in /  0 mm
04:21 4.6 °F /  -15.2 °C 3.2 °F /  -16 °C 992.4 in /  33602.7 hPa SSW 24.1 mph /  38.8 km/h 24.1 mph /  38.8 km/h 91 % 0.0 in /  0 mm
04:22 4.6 °F /  -15.2 °C 3.2 °F /  -16 °C 992.1 in /  33592.5 hPa SW 19.3 mph /  31.1 km/h 19.3 mph /  31.1 km/h 91 % 0.0 in /  0 mm
04:27 4.5 °F /  -15.3 °C 3.2 °F /  -16 °C 992.1 in /  33592.5 hPa South 20.4 mph /  32.8 km/h 20.4 mph /  32.8 km/h 91 % 0.0 in /  0 mm
04:32 4.5 °F /  -15.3 °C 3.2 °F /  -16 °C 992.1 in /  33592.5 hPa SW 14.8 mph /  23.8 km/h 14.8 mph /  23.8 km/h 91 % 0.0 in /  0 mm
04:37 4.4 °F /  -15.3 °C 3.1 °F /  -16.1 °C 992.1 in /  33592.5 hPa SW 18.5 mph /  29.8 km/h 18.5 mph /  29.8 km/h 91 % 0.0 in /  0 mm
04:42 4.4 °F /  -15.3 °C 3.1 °F /  -16.1 °C 992.1 in /  33592.5 hPa SSW 24.1 mph /  38.8 km/h 24.1 mph /  38.8 km/h 91 % 0.0 in /  0 mm
04:47 4.4 °F /  -15.3 °C 3.1 °F /  -16.1 °C 992.1 in /  33592.5 hPa SSE 16.7 mph /  26.9 km/h 16.7 mph /  26.9 km/h 91 % 0.0 in /  0 mm
04:52 4.3 °F /  -15.4 °C 3.0 °F /  -16.1 °C 992.1 in /  33592.5 hPa WSW 27.8 mph /  44.7 km/h 27.8 mph /  44.7 km/h 91 % 0.0 in /  0 mm
04:57 4.3 °F /  -15.4 °C 3.0 °F /  -16.1 °C 992.1 in /  33592.5 hPa WSW 20.4 mph /  32.8 km/h 20.4 mph /  32.8 km/h 91 % 0.0 in /  0 mm
05:02 4.3 °F /  -15.4 °C 2.9 °F /  -16.2 °C 992.1 in /  33592.5 hPa WSW 20.4 mph /  32.8 km/h 20.4 mph /  32.8 km/h 91 % 0.0 in /  0 mm
05:07 4.3 °F /  -15.4 °C 2.9 °F /  -16.2 °C 992.1 in /  33592.5 hPa West 20.4 mph /  32.8 km/h 20.4 mph /  32.8 km/h 91 % 0.0 in /  0 mm
05:12 4.3 °F /  -15.4 °C 2.9 °F /  -16.2 °C 992.1 in /  33592.5 hPa SW 22.2 mph /  35.7 km/h 22.2 mph /  35.7 km/h 91 % 0.0 in /  0 mm
05:17 4.2 °F /  -15.4 °C 2.7 °F /  -16.3 °C 992.4 in /  33602.7 hPa SSW 22.2 mph /  35.7 km/h 22.2 mph /  35.7 km/h 90 % 0.0 in /  0 mm
05:22 4.2 °F /  -15.4 °C 2.7 °F /  -16.3 °C 992.4 in /  33602.7 hPa WSW 20.4 mph /  32.8 km/h 20.4 mph /  32.8 km/h 90 % 0.0 in /  0 mm
05:27 4.2 °F /  -15.4 °C 2.7 °F /  -16.3 °C 992.4 in /  33602.7 hPa SSW 16.7 mph /  26.9 km/h 16.7 mph /  26.9 km/h 90 % 0.0 in /  0 mm
05:32 4.1 °F /  -15.5 °C 2.6 °F /  -16.3 °C 992.1 in /  33592.5 hPa SSW 22.2 mph /  35.7 km/h 22.2 mph /  35.7 km/h 90 % 0.0 in /  0 mm
05:37 4.1 °F /  -15.5 °C 2.6 °F /  -16.3 °C 992.1 in /  33592.5 hPa SW 22.2 mph /  35.7 km/h 22.2 mph /  35.7 km/h 90 % 0.0 in /  0 mm
05:42 4.1 °F /  -15.5 °C 2.6 °F /  -16.3 °C 992.1 in /  33592.5 hPa SW 25.9 mph /  41.7 km/h 25.9 mph /  41.7 km/h 90 % 0.0 in /  0 mm
05:47 4.1 °F /  -15.5 °C 2.6 °F /  -16.3 °C 992.1 in /  33592.5 hPa SSW 20.4 mph /  32.8 km/h 20.4 mph /  32.8 km/h 90 % 0.0 in /  0 mm
05:52 4.1 °F /  -15.5 °C 2.6 °F /  -16.3 °C 992.4 in /  33602.7 hPa WSW 24.1 mph /  38.8 km/h 24.1 mph /  38.8 km/h 90 % 0.0 in /  0 mm
05:57 4.1 °F /  -15.5 °C 2.6 °F /  -16.3 °C 992.1 in /  33592.5 hPa SW 18.5 mph /  29.8 km/h 18.5 mph /  29.8 km/h 90 % 0.0 in /  0 mm
06:02 4.0 °F /  -15.6 °C 2.7 °F /  -16.3 °C 992.4 in /  33602.7 hPa SW 20.4 mph /  32.8 km/h 20.4 mph /  32.8 km/h 91 % 0.0 in /  0 mm
06:07 4.0 °F /  -15.6 °C 2.7 °F /  -16.3 °C 992.4 in /  33602.7 hPa West 20.4 mph /  32.8 km/h 20.4 mph /  32.8 km/h 91 % 0.0 in /  0 mm
06:22 4.0 °F /  -15.6 °C 2.7 °F /  -16.3 °C 992.4 in /  33602.7 hPa South 22.5 mph /  36.2 km/h 22.5 mph /  36.2 km/h 91 % 0.0 in /  0 mm
06:32 4.1 °F /  -15.5 °C 2.7 °F /  -16.3 °C 992.4 in /  33602.7 hPa SW 30.6 mph /  49.2 km/h 30.6 mph /  49.2 km/h 91 % 0.0 in /  0 mm
06:37 4.1 °F /  -15.5 °C 2.8 °F /  -16.2 °C 992.4 in /  33602.7 hPa SW 22.5 mph /  36.2 km/h 22.5 mph /  36.2 km/h 91 % 0.0 in /  0 mm
06:42 4.1 °F /  -15.5 °C 2.6 °F /  -16.3 °C 992.1 in /  33592.5 hPa SW 29.6 mph /  47.6 km/h 29.6 mph /  47.6 km/h 90 % 0.0 in /  0 mm
06:47 4.2 °F /  -15.4 °C 2.7 °F /  -16.3 °C 992.4 in /  33602.7 hPa SW 24.1 mph /  38.8 km/h 24.1 mph /  38.8 km/h 90 % 0.0 in /  0 mm
06:52 4.1 °F /  -15.5 °C 2.6 °F /  -16.3 °C 992.4 in /  33602.7 hPa SSW 22.5 mph /  36.2 km/h 22.5 mph /  36.2 km/h 90 % 0.0 in /  0 mm
06:57 4.1 °F /  -15.5 °C 2.6 °F /  -16.3 °C 992.4 in /  33602.7 hPa WSW 25.9 mph /  41.7 km/h 25.9 mph /  41.7 km/h 90 % 0.0 in /  0 mm
07:02 4.2 °F /  -15.4 °C 2.7 °F /  -16.3 °C 992.4 in /  33602.7 hPa WSW 18.5 mph /  29.8 km/h 18.5 mph /  29.8 km/h 90 % 0.0 in /  0 mm
07:07 4.2 °F /  -15.4 °C 2.7 °F /  -16.3 °C 992.8 in /  33616.2 hPa WNW 33.3 mph /  53.6 km/h 33.3 mph /  53.6 km/h 90 % 0.0 in /  0 mm
07:12 3.9 °F /  -15.6 °C 2.4 °F /  -16.4 °C 992.8 in /  33616.2 hPa West 18.5 mph /  29.8 km/h 18.5 mph /  29.8 km/h 90 % 0.0 in /  0 mm
07:16 3.7 °F /  -15.7 °C 2.4 °F /  -16.4 °C 992.8 in /  33616.2 hPa West 20.4 mph /  32.8 km/h 20.4 mph /  32.8 km/h 91 % 0.0 in /  0 mm
07:21 3.6 °F /  -15.8 °C 2.4 °F /  -16.4 °C 992.4 in /  33602.7 hPa WSW 13.0 mph /  20.9 km/h 13.0 mph /  20.9 km/h 92 % 0.0 in /  0 mm
07:26 3.4 °F /  -15.9 °C 2.3 °F /  -16.5 °C 992.4 in /  33602.7 hPa WSW 11.1 mph /  17.9 km/h 11.1 mph /  17.9 km/h 92 % 0.0 in /  0 mm
07:31 3.3 °F /  -15.9 °C 2.3 °F /  -16.5 °C 992.8 in /  33616.2 hPa WSW 18.5 mph /  29.8 km/h 18.5 mph /  29.8 km/h 93 % 0.0 in /  0 mm
07:36 3.3 °F /  -15.9 °C 2.3 °F /  -16.5 °C 992.4 in /  33602.7 hPa WSW 11.3 mph /  18.2 km/h 11.3 mph /  18.2 km/h 93 % 0.0 in /  0 mm
07:41 3.2 °F /  -16 °C 2.2 °F /  -16.6 °C 992.8 in /  33616.2 hPa WSW 18.5 mph /  29.8 km/h 18.5 mph /  29.8 km/h 93 % 0.0 in /  0 mm
07:46 3.2 °F /  -16 °C 2.2 °F /  -16.6 °C 992.8 in /  33616.2 hPa WSW 24.1 mph /  38.8 km/h 24.1 mph /  38.8 km/h 93 % 0.0 in /  0 mm
07:51 3.2 °F /  -16 °C 2.3 °F /  -16.5 °C 992.8 in /  33616.2 hPa SSW 24.1 mph /  38.8 km/h 24.1 mph /  38.8 km/h 94 % 0.0 in /  0 mm
07:56 3.3 °F /  -15.9 °C 2.3 °F /  -16.5 °C 992.8 in /  33616.2 hPa SSW 24.1 mph /  38.8 km/h 24.1 mph /  38.8 km/h 93 % 0.0 in /  0 mm
08:01 3.4 °F /  -15.9 °C 2.4 °F /  -16.4 °C 992.8 in /  33616.2 hPa SW 20.4 mph /  32.8 km/h 20.4 mph /  32.8 km/h 93 % 0.0 in /  0 mm
08:06 3.5 °F /  -15.8 °C 2.5 °F /  -16.4 °C 992.8 in /  33616.2 hPa SSW 27.8 mph /  44.7 km/h 27.8 mph /  44.7 km/h 93 % 0.0 in /  0 mm
08:11 3.6 °F /  -15.8 °C 2.4 °F /  -16.4 °C 992.8 in /  33616.2 hPa SSW 25.9 mph /  41.7 km/h 25.9 mph /  41.7 km/h 92 % 0.0 in /  0 mm
08:16 3.6 °F /  -15.8 °C 2.3 °F /  -16.5 °C 992.4 in /  33602.7 hPa SSW 18.5 mph /  29.8 km/h 18.5 mph /  29.8 km/h 91 % 0.0 in /  0 mm
08:21 3.6 °F /  -15.8 °C 2.2 °F /  -16.6 °C 992.8 in /  33616.2 hPa SW 22.2 mph /  35.7 km/h 22.2 mph /  35.7 km/h 91 % 0.0 in /  0 mm
08:26 3.6 °F /  -15.8 °C 2.4 °F /  -16.4 °C 992.8 in /  33616.2 hPa SSW 37.0 mph /  59.5 km/h 37.0 mph /  59.5 km/h 92 % 0.0 in /  0 mm
08:31 3.7 °F /  -15.7 °C 2.5 °F /  -16.4 °C 992.8 in /  33616.2 hPa South 19.3 mph /  31.1 km/h 19.3 mph /  31.1 km/h 92 % 0.0 in /  0 mm
08:36 3.8 °F /  -15.7 °C 2.6 °F /  -16.3 °C 993.1 in /  33626.4 hPa SSW 22.2 mph /  35.7 km/h 22.2 mph /  35.7 km/h 92 % 0.0 in /  0 mm
08:51 4.1 °F /  -15.5 °C 2.7 °F /  -16.3 °C 993.1 in /  33626.4 hPa SW 18.5 mph /  29.8 km/h 18.5 mph /  29.8 km/h 91 % 0.0 in /  0 mm
08:56 4.1 °F /  -15.5 °C 2.7 °F /  -16.3 °C 993.1 in /  33626.4 hPa South 24.1 mph /  38.8 km/h 24.1 mph /  38.8 km/h 91 % 0.0 in /  0 mm
09:01 4.1 °F /  -15.5 °C 2.6 °F /  -16.3 °C 993.1 in /  33626.4 hPa SW 19.3 mph /  31.1 km/h 19.3 mph /  31.1 km/h 90 % 0.0 in /  0 mm
09:12 4.1 °F /  -15.5 °C 2.6 °F /  -16.3 °C 993.1 in /  33626.4 hPa SE 18.5 mph /  29.8 km/h 18.5 mph /  29.8 km/h 90 % 0.0 in /  0 mm
09:17 4.1 °F /  -15.5 °C 2.6 °F /  -16.3 °C 993.1 in /  33626.4 hPa West 25.9 mph /  41.7 km/h 25.9 mph /  41.7 km/h 90 % 0.0 in /  0 mm
09:22 4.1 °F /  -15.5 °C 2.6 °F /  -16.3 °C 993.1 in /  33626.4 hPa SSW 16.7 mph /  26.9 km/h 16.7 mph /  26.9 km/h 90 % 0.0 in /  0 mm
09:27 4.1 °F /  -15.5 °C 2.6 °F /  -16.3 °C 993.1 in /  33626.4 hPa South 18.5 mph /  29.8 km/h 18.5 mph /  29.8 km/h 90 % 0.0 in /  0 mm
09:32 4.1 °F /  -15.5 °C 2.7 °F /  -16.3 °C 993.1 in /  33626.4 hPa SSW 22.5 mph /  36.2 km/h 22.5 mph /  36.2 km/h 91 % 0.0 in /  0 mm
09:37 4.1 °F /  -15.5 °C 2.8 °F /  -16.2 °C 993.1 in /  33626.4 hPa South 31.5 mph /  50.7 km/h 31.5 mph /  50.7 km/h 91 % 0.0 in /  0 mm
09:42 4.2 °F /  -15.4 °C 2.8 °F /  -16.2 °C 993.1 in /  33626.4 hPa West 24.1 mph /  38.8 km/h 24.1 mph /  38.8 km/h 91 % 0.0 in /  0 mm
09:47 4.2 °F /  -15.4 °C 3.1 °F /  -16.1 °C 993.1 in /  33626.4 hPa WSW 22.2 mph /  35.7 km/h 22.2 mph /  35.7 km/h 92 % 0.0 in /  0 mm
09:52 4.2 °F /  -15.4 °C 3.1 °F /  -16.1 °C 993.5 in /  33639.9 hPa South 32.2 mph /  51.8 km/h 32.2 mph /  51.8 km/h 92 % 0.0 in /  0 mm
09:57 4.2 °F /  -15.4 °C 3.0 °F /  -16.1 °C 993.5 in /  33639.9 hPa SSW 31.5 mph /  50.7 km/h 31.5 mph /  50.7 km/h 92 % 0.0 in /  0 mm
10:07 4.1 °F /  -15.5 °C 2.9 °F /  -16.2 °C 993.5 in /  33639.9 hPa South 22.2 mph /  35.7 km/h 22.2 mph /  35.7 km/h 92 % 0.0 in /  0 mm
10:12 4.1 °F /  -15.5 °C 2.9 °F /  -16.2 °C 993.8 in /  33650.1 hPa South 31.5 mph /  50.7 km/h 31.5 mph /  50.7 km/h 92 % 0.0 in /  0 mm
10:17 4.1 °F /  -15.5 °C 2.9 °F /  -16.2 °C 993.8 in /  33650.1 hPa South 31.5 mph /  50.7 km/h 31.5 mph /  50.7 km/h 92 % 0.0 in /  0 mm
10:22 4.1 °F /  -15.5 °C 2.9 °F /  -16.2 °C 993.8 in /  33650.1 hPa WSW 18.5 mph /  29.8 km/h 18.5 mph /  29.8 km/h 92 % 0.0 in /  0 mm
10:27 4.1 °F /  -15.5 °C 2.9 °F /  -16.2 °C 993.5 in /  33639.9 hPa SW 37.0 mph /  59.5 km/h 37.0 mph /  59.5 km/h 92 % 0.0 in /  0 mm
10:37 3.9 °F /  -15.6 °C 2.8 °F /  -16.2 °C 993.8 in /  33650.1 hPa South 20.9 mph /  33.6 km/h 20.9 mph /  33.6 km/h 92 % 0.0 in /  0 mm
10:42 3.9 °F /  -15.6 °C 2.8 °F /  -16.2 °C 993.8 in /  33650.1 hPa South 20.4 mph /  32.8 km/h 20.4 mph /  32.8 km/h 92 % 0.0 in /  0 mm
10:47 3.8 °F /  -15.7 °C 2.7 °F /  -16.3 °C 993.8 in /  33650.1 hPa SSW 20.9 mph /  33.6 km/h 20.9 mph /  33.6 km/h 92 % 0.0 in /  0 mm
10:52 3.8 °F /  -15.7 °C 2.6 °F /  -16.3 °C 993.8 in /  33650.1 hPa SW 22.2 mph /  35.7 km/h 22.2 mph /  35.7 km/h 92 % 0.0 in /  0 mm
10:57 3.8 °F /  -15.7 °C 2.6 °F /  -16.3 °C 993.8 in /  33650.1 hPa SSW 20.4 mph /  32.8 km/h 20.4 mph /  32.8 km/h 92 % 0.0 in /  0 mm
11:02 3.8 °F /  -15.7 °C 2.7 °F /  -16.3 °C 993.8 in /  33650.1 hPa SSE 25.9 mph /  41.7 km/h 25.9 mph /  41.7 km/h 93 % 0.0 in /  0 mm
11:07 3.8 °F /  -15.7 °C 2.7 °F /  -16.3 °C 993.8 in /  33650.1 hPa South 27.8 mph /  44.7 km/h 27.8 mph /  44.7 km/h 93 % 0.0 in /  0 mm
11:12 3.7 °F /  -15.7 °C 2.7 °F /  -16.3 °C 993.8 in /  33650.1 hPa SSW 20.4 mph /  32.8 km/h 20.4 mph /  32.8 km/h 93 % 0.0 in /  0 mm
11:17 3.6 °F /  -15.8 °C 2.6 °F /  -16.3 °C 993.8 in /  33650.1 hPa SW 24.1 mph /  38.8 km/h 24.1 mph /  38.8 km/h 93 % 0.0 in /  0 mm
11:22 3.6 °F /  -15.8 °C 2.6 °F /  -16.3 °C 993.8 in /  33650.1 hPa SW 20.4 mph /  32.8 km/h 20.4 mph /  32.8 km/h 93 % 0.0 in /  0 mm
11:27 3.6 °F /  -15.8 °C 2.4 °F /  -16.4 °C 993.8 in /  33650.1 hPa SSW 20.4 mph /  32.8 km/h 20.4 mph /  32.8 km/h 92 % 0.0 in /  0 mm
11:37 3.7 °F /  -15.7 °C 2.6 °F /  -16.3 °C 993.8 in /  33650.1 hPa WSW 24.1 mph /  38.8 km/h 24.1 mph /  38.8 km/h 92 % 0.0 in /  0 mm
11:42 3.8 °F /  -15.7 °C 2.7 °F /  -16.3 °C 993.8 in /  33650.1 hPa South 22.2 mph /  35.7 km/h 22.2 mph /  35.7 km/h 92 % 0.0 in /  0 mm
11:47 3.9 °F /  -15.6 °C 2.8 °F /  -16.2 °C 993.8 in /  33650.1 hPa West 18.5 mph /  29.8 km/h 18.5 mph /  29.8 km/h 92 % 0.0 in /  0 mm
11:52 4.1 °F /  -15.5 °C 2.7 °F /  -16.3 °C 993.8 in /  33650.1 hPa SSW 18.5 mph /  29.8 km/h 18.5 mph /  29.8 km/h 91 % 0.0 in /  0 mm
11:57 4.1 °F /  -15.5 °C 2.7 °F /  -16.3 °C 993.8 in /  33650.1 hPa SW 24.1 mph /  38.8 km/h 24.1 mph /  38.8 km/h 91 % 0.0 in /  0 mm
12:02 4.1 °F /  -15.5 °C 2.6 °F /  -16.3 °C 993.8 in /  33650.1 hPa SSW 32.2 mph /  51.8 km/h 32.2 mph /  51.8 km/h 90 % 0.0 in /  0 mm
12:12 4.2 °F /  -15.4 °C 2.7 °F /  -16.3 °C 993.8 in /  33650.1 hPa SW 32.2 mph /  51.8 km/h 32.2 mph /  51.8 km/h 90 % 0.0 in /  0 mm
12:17 4.3 °F /  -15.4 °C 2.8 °F /  -16.2 °C 993.5 in /  33639.9 hPa South 25.9 mph /  41.7 km/h 25.9 mph /  41.7 km/h 90 % 0.0 in /  0 mm
12:22 4.4 °F /  -15.3 °C 2.9 °F /  -16.2 °C 993.5 in /  33639.9 hPa WSW 22.2 mph /  35.7 km/h 22.2 mph /  35.7 km/h 90 % 0.0 in /  0 mm
12:27 4.5 °F /  -15.3 °C 3.0 °F /  -16.1 °C 993.5 in /  33639.9 hPa SSE 29.0 mph /  46.7 km/h 29.0 mph /  46.7 km/h 90 % 0.0 in /  0 mm
12:32 4.6 °F /  -15.2 °C 2.9 °F /  -16.2 °C 993.5 in /  33639.9 hPa SSW 27.8 mph /  44.7 km/h 27.8 mph /  44.7 km/h 89 % 0.0 in /  0 mm
12:37 4.7 °F /  -15.2 °C 3.0 °F /  -16.1 °C 993.5 in /  33639.9 hPa SW 24.1 mph /  38.8 km/h 24.1 mph /  38.8 km/h 89 % 0.0 in /  0 mm
12:57 4.7 °F /  -15.2 °C 2.9 °F /  -16.2 °C 993.5 in /  33639.9 hPa SSW 20.4 mph /  32.8 km/h 20.4 mph /  32.8 km/h 88 % 0.0 in /  0 mm
13:02 4.7 °F /  -15.2 °C 2.9 °F /  -16.2 °C 993.5 in /  33639.9 hPa SW 30.6 mph /  49.2 km/h 30.6 mph /  49.2 km/h 88 % 0.0 in /  0 mm
13:12 4.8 °F /  -15.1 °C 3.0 °F /  -16.1 °C 993.1 in /  33626.4 hPa West 22.2 mph /  35.7 km/h 22.2 mph /  35.7 km/h 88 % 0.0 in /  0 mm
13:17 4.8 °F /  -15.1 °C 3.0 °F /  -16.1 °C 993.1 in /  33626.4 hPa SW 25.7 mph /  41.4 km/h 25.7 mph /  41.4 km/h 88 % 0.0 in /  0 mm
13:22 4.8 °F /  -15.1 °C 2.9 °F /  -16.2 °C 993.1 in /  33626.4 hPa SSW 20.4 mph /  32.8 km/h 20.4 mph /  32.8 km/h 88 % 0.0 in /  0 mm
13:27 4.8 °F /  -15.1 °C 3.0 °F /  -16.1 °C 993.1 in /  33626.4 hPa SW 29.6 mph /  47.6 km/h 29.6 mph /  47.6 km/h 88 % 0.0 in /  0 mm
13:32 4.9 °F /  -15.1 °C 2.9 °F /  -16.2 °C 993.1 in /  33626.4 hPa SW 29.6 mph /  47.6 km/h 29.6 mph /  47.6 km/h 87 % 0.0 in /  0 mm
13:42 4.8 °F /  -15.1 °C 2.8 °F /  -16.2 °C 993.5 in /  33639.9 hPa SW 33.8 mph /  54.4 km/h 33.8 mph /  54.4 km/h 87 % 0.0 in /  0 mm
13:52 4.7 °F /  -15.2 °C 2.7 °F /  -16.3 °C 993.1 in /  33626.4 hPa WSW 33.3 mph /  53.6 km/h 33.3 mph /  53.6 km/h 87 % 0.0 in /  0 mm
14:02 4.8 °F /  -15.1 °C 2.8 °F /  -16.2 °C 993.1 in /  33626.4 hPa SW 25.9 mph /  41.7 km/h 25.9 mph /  41.7 km/h 87 % 0.0 in /  0 mm
14:18 4.6 °F /  -15.2 °C 2.4 °F /  -16.4 °C 993.1 in /  33626.4 hPa South 32.2 mph /  51.8 km/h 32.2 mph /  51.8 km/h 86 % 0.0 in /  0 mm
14:23 4.5 °F /  -15.3 °C 2.5 °F /  -16.4 °C 993.1 in /  33626.4 hPa West 20.4 mph /  32.8 km/h 20.4 mph /  32.8 km/h 87 % 0.0 in /  0 mm
14:33 4.3 °F /  -15.4 °C 2.3 °F /  -16.5 °C 993.1 in /  33626.4 hPa WSW 19.3 mph /  31.1 km/h 19.3 mph /  31.1 km/h 87 % 0.0 in /  0 mm
14:43 4.2 °F /  -15.4 °C 2.3 °F /  -16.5 °C 993.1 in /  33626.4 hPa West 20.9 mph /  33.6 km/h 20.9 mph /  33.6 km/h 88 % 0.0 in /  0 mm
14:47 4.1 °F /  -15.5 °C 2.3 °F /  -16.5 °C 993.1 in /  33626.4 hPa West 20.4 mph /  32.8 km/h 20.4 mph /  32.8 km/h 88 % 0.0 in /  0 mm
14:52 4.0 °F /  -15.6 °C 2.2 °F /  -16.6 °C 993.1 in /  33626.4 hPa SSW 29.6 mph /  47.6 km/h 29.6 mph /  47.6 km/h 88 % 0.0 in /  0 mm
14:57 3.9 °F /  -15.6 °C 2.1 °F /  -16.6 °C 993.5 in /  33639.9 hPa SSW 25.7 mph /  41.4 km/h 25.7 mph /  41.4 km/h 88 % 0.0 in /  0 mm
15:07 3.8 °F /  -15.7 °C 2.0 °F /  -16.7 °C 993.5 in /  33639.9 hPa South 18.5 mph /  29.8 km/h 18.5 mph /  29.8 km/h 88 % 0.0 in /  0 mm
15:12 3.8 °F /  -15.7 °C 2.1 °F /  -16.6 °C 993.5 in /  33639.9 hPa SW 25.9 mph /  41.7 km/h 25.9 mph /  41.7 km/h 89 % 0.0 in /  0 mm
15:17 3.7 °F /  -15.7 °C 2.0 °F /  -16.7 °C 993.5 in /  33639.9 hPa SW 18.5 mph /  29.8 km/h 18.5 mph /  29.8 km/h 89 % 0.0 in /  0 mm
15:32 3.4 °F /  -15.9 °C 1.8 °F /  -16.8 °C 993.5 in /  33639.9 hPa SSE 24.1 mph /  38.8 km/h 24.1 mph /  38.8 km/h 89 % 0.0 in /  0 mm
15:37 3.4 °F /  -15.9 °C 1.7 °F /  -16.8 °C 993.5 in /  33639.9 hPa SSW 18.5 mph /  29.8 km/h 18.5 mph /  29.8 km/h 89 % 0.0 in /  0 mm
15:43 3.3 °F /  -15.9 °C 1.8 °F /  -16.8 °C 993.5 in /  33639.9 hPa SSW 9.7 mph /  15.6 km/h 25.7 mph /  41.4 km/h 90 % 0.0 in /  0 mm
15:48 3.3 °F /  -15.9 °C 1.8 °F /  -16.8 °C 993.5 in /  33639.9 hPa SW 9.7 mph /  15.6 km/h 25.7 mph /  41.4 km/h 90 % 0.0 in /  0 mm
15:53 3.3 °F /  -15.9 °C 1.8 °F /  -16.8 °C 993.5 in /  33639.9 hPa SW 9.7 mph /  15.6 km/h 24.1 mph /  38.8 km/h 90 % 0.0 in /  0 mm
16:03 3.2 °F /  -16 °C 1.7 °F /  -16.8 °C 993.5 in /  33639.9 hPa SSW 9.7 mph /  15.6 km/h 19.3 mph /  31.1 km/h 90 % 0.0 in /  0 mm
16:08 3.2 °F /  -16 °C 1.7 °F /  -16.8 °C 993.8 in /  33650.1 hPa SSW 9.7 mph /  15.6 km/h 19.3 mph /  31.1 km/h 90 % 0.0 in /  0 mm
16:18 3.1 °F /  -16.1 °C 1.6 °F /  -16.9 °C 993.5 in /  33639.9 hPa SSW 9.7 mph /  15.6 km/h 14.5 mph /  23.3 km/h 90 % 0.0 in /  0 mm
16:23 3.1 °F /  -16.1 °C 1.6 °F /  -16.9 °C 993.8 in /  33650.1 hPa SSW 11.3 mph /  18.2 km/h 19.3 mph /  31.1 km/h 90 % 0.0 in /  0 mm
16:28 3.1 °F /  -16.1 °C 1.6 °F /  -16.9 °C 993.8 in /  33650.1 hPa SW 12.9 mph /  20.8 km/h 19.3 mph /  31.1 km/h 90 % 0.0 in /  0 mm
16:33 3.1 °F /  -16.1 °C 1.6 °F /  -16.9 °C 993.8 in /  33650.1 hPa SSW 11.3 mph /  18.2 km/h 24.1 mph /  38.8 km/h 90 % 0.0 in /  0 mm
16:38 3.1 °F /  -16.1 °C 1.6 °F /  -16.9 °C 993.8 in /  33650.1 hPa SW 11.3 mph /  18.2 km/h 16.1 mph /  25.9 km/h 90 % 0.0 in /  0 mm
16:43 3.0 °F /  -16.1 °C 1.5 °F /  -16.9 °C 993.8 in /  33650.1 hPa SW 12.9 mph /  20.8 km/h 19.3 mph /  31.1 km/h 90 % 0.0 in /  0 mm
16:48 2.9 °F /  -16.2 °C 1.5 °F /  -16.9 °C 993.8 in /  33650.1 hPa SW 8.0 mph /  12.9 km/h 19.3 mph /  31.1 km/h 90 % 0.0 in /  0 mm
16:58 2.9 °F /  -16.2 °C 1.4 °F /  -17 °C 993.8 in /  33650.1 hPa WSW 22.2 mph /  35.7 km/h 22.2 mph /  35.7 km/h 90 % 0.0 in /  0 mm
17:03 2.9 °F /  -16.2 °C 1.3 °F /  -17.1 °C 993.8 in /  33650.1 hPa SW 24.1 mph /  38.8 km/h 24.1 mph /  38.8 km/h 89 % 0.0 in /  0 mm
17:13 2.9 °F /  -16.2 °C 1.3 °F /  -17.1 °C 994.1 in /  33660.2 hPa SW 25.9 mph /  41.7 km/h 25.9 mph /  41.7 km/h 89 % 0.0 in /  0 mm
17:18 2.9 °F /  -16.2 °C 1.1 °F /  -17.2 °C 994.1 in /  33660.2 hPa SSW 22.2 mph /  35.7 km/h 22.2 mph /  35.7 km/h 88 % 0.0 in /  0 mm
17:23 2.9 °F /  -16.2 °C 0.9 °F /  -17.3 °C 994.1 in /  33660.2 hPa SW 25.9 mph /  41.7 km/h 25.9 mph /  41.7 km/h 87 % 0.0 in /  0 mm
17:33 3.0 °F /  -16.1 °C 1.1 °F /  -17.2 °C 994.1 in /  33660.2 hPa SSW 25.9 mph /  41.7 km/h 25.9 mph /  41.7 km/h 87 % 0.0 in /  0 mm
17:38 3.0 °F /  -16.1 °C 1.1 °F /  -17.2 °C 994.1 in /  33660.2 hPa WSW 16.7 mph /  26.9 km/h 16.7 mph /  26.9 km/h 87 % 0.0 in /  0 mm
17:53 3.1 °F /  -16.1 °C 1.0 °F /  -17.2 °C 994.1 in /  33660.2 hPa SSW 29.0 mph /  46.7 km/h 29.0 mph /  46.7 km/h 86 % 0.0 in /  0 mm
17:58 3.1 °F /  -16.1 °C 1.0 °F /  -17.2 °C 994.1 in /  33660.2 hPa SSW 22.2 mph /  35.7 km/h 22.2 mph /  35.7 km/h 86 % 0.0 in /  0 mm
18:03 3.2 °F /  -16 °C 1.1 °F /  -17.2 °C 994.1 in /  33660.2 hPa SSW 18.5 mph /  29.8 km/h 18.5 mph /  29.8 km/h 86 % 0.0 in /  0 mm
18:08 3.1 °F /  -16.1 °C 1.0 °F /  -17.2 °C 994.1 in /  33660.2 hPa SSW 24.1 mph /  38.8 km/h 24.1 mph /  38.8 km/h 86 % 0.0 in /  0 mm
18:13 3.1 °F /  -16.1 °C 1.0 °F /  -17.2 °C 994.1 in /  33660.2 hPa WSW 22.5 mph /  36.2 km/h 22.5 mph /  36.2 km/h 86 % 0.0 in /  0 mm
18:18 3.2 °F /  -16 °C 1.1 °F /  -17.2 °C 994.5 in /  33673.8 hPa SSE 18.5 mph /  29.8 km/h 18.5 mph /  29.8 km/h 86 % 0.0 in /  0 mm
18:23 3.1 °F /  -16.1 °C 1.0 °F /  -17.2 °C 994.5 in /  33673.8 hPa SW 18.5 mph /  29.8 km/h 18.5 mph /  29.8 km/h 86 % 0.0 in /  0 mm
18:28 3.1 °F /  -16.1 °C 0.9 °F /  -17.3 °C 994.5 in /  33673.8 hPa WSW 16.7 mph /  26.9 km/h 16.7 mph /  26.9 km/h 86 % 0.0 in /  0 mm
18:33 3.0 °F /  -16.1 °C 0.9 °F /  -17.3 °C 994.5 in /  33673.8 hPa South 18.5 mph /  29.8 km/h 18.5 mph /  29.8 km/h 86 % 0.0 in /  0 mm
18:38 3.1 °F /  -16.1 °C 0.9 °F /  -17.3 °C 994.5 in /  33673.8 hPa WSW 19.3 mph /  31.1 km/h 19.3 mph /  31.1 km/h 86 % 0.0 in /  0 mm
18:43 3.0 °F /  -16.1 °C 0.9 °F /  -17.3 °C 994.5 in /  33673.8 hPa SSW 20.4 mph /  32.8 km/h 20.4 mph /  32.8 km/h 86 % 0.0 in /  0 mm
18:48 2.9 °F /  -16.2 °C 0.8 °F /  -17.3 °C 994.5 in /  33673.8 hPa WSW 16.7 mph /  26.9 km/h 16.7 mph /  26.9 km/h 86 % 0.0 in /  0 mm
18:58 2.8 °F /  -16.2 °C 0.9 °F /  -17.3 °C 994.5 in /  33673.8 hPa South 18.5 mph /  29.8 km/h 18.5 mph /  29.8 km/h 87 % 0.0 in /  0 mm
19:03 2.8 °F /  -16.2 °C 0.8 °F /  -17.3 °C 994.5 in /  33673.8 hPa SSW 18.5 mph /  29.8 km/h 18.5 mph /  29.8 km/h 87 % 0.0 in /  0 mm
19:13 2.8 °F /  -16.2 °C 0.8 °F /  -17.3 °C 994.8 in /  33683.9 hPa WSW 18.5 mph /  29.8 km/h 18.5 mph /  29.8 km/h 87 % 0.0 in /  0 mm
19:18 2.8 °F /  -16.2 °C 0.9 °F /  -17.3 °C 994.5 in /  33673.8 hPa SSW 25.7 mph /  41.4 km/h 25.7 mph /  41.4 km/h 87 % 0.0 in /  0 mm
19:23 2.9 °F /  -16.2 °C 0.9 °F /  -17.3 °C 994.5 in /  33673.8 hPa SW 20.9 mph /  33.6 km/h 20.9 mph /  33.6 km/h 87 % 0.0 in /  0 mm
19:28 2.9 °F /  -16.2 °C 0.9 °F /  -17.3 °C 994.5 in /  33673.8 hPa SW 35.4 mph /  57 km/h 35.4 mph /  57 km/h 87 % 0.0 in /  0 mm
19:33 2.9 °F /  -16.2 °C 0.8 °F /  -17.3 °C 994.5 in /  33673.8 hPa SSW 29.6 mph /  47.6 km/h 29.6 mph /  47.6 km/h 86 % 0.0 in /  0 mm
19:38 3.0 °F /  -16.1 °C 0.7 °F /  -17.4 °C 994.5 in /  33673.8 hPa SW 24.1 mph /  38.8 km/h 24.1 mph /  38.8 km/h 85 % 0.0 in /  0 mm
19:43 3.0 °F /  -16.1 °C 0.9 °F /  -17.3 °C 994.5 in /  33673.8 hPa West 20.9 mph /  33.6 km/h 20.9 mph /  33.6 km/h 86 % 0.0 in /  0 mm
19:48 2.9 °F /  -16.2 °C 0.8 °F /  -17.3 °C 994.5 in /  33673.8 hPa SW 20.4 mph /  32.8 km/h 20.4 mph /  32.8 km/h 86 % 0.0 in /  0 mm
19:53 2.9 °F /  -16.2 °C 0.8 °F /  -17.3 °C 994.5 in /  33673.8 hPa SSW 18.5 mph /  29.8 km/h 18.5 mph /  29.8 km/h 86 % 0.0 in /  0 mm
19:58 2.9 °F /  -16.2 °C 0.9 °F /  -17.3 °C 994.5 in /  33673.8 hPa WSW 24.1 mph /  38.8 km/h 24.1 mph /  38.8 km/h 87 % 0.0 in /  0 mm
20:03 2.9 °F /  -16.2 °C 0.9 °F /  -17.3 °C 994.5 in /  33673.8 hPa SSW 20.9 mph /  33.6 km/h 20.9 mph /  33.6 km/h 87 % 0.0 in /  0 mm
20:13 2.9 °F /  -16.2 °C 1.1 °F /  -17.2 °C 994.5 in /  33673.8 hPa WSW 16.1 mph /  25.9 km/h 16.1 mph /  25.9 km/h 88 % 0.0 in /  0 mm
20:18 2.8 °F /  -16.2 °C 1.1 °F /  -17.2 °C 994.5 in /  33673.8 hPa SSW 27.8 mph /  44.7 km/h 27.8 mph /  44.7 km/h 88 % 0.0 in /  0 mm
20:23 2.8 °F /  -16.2 °C 1.1 °F /  -17.2 °C 994.8 in /  33683.9 hPa SW 31.5 mph /  50.7 km/h 31.5 mph /  50.7 km/h 88 % 0.0 in /  0 mm
20:28 2.8 °F /  -16.2 °C 1.1 °F /  -17.2 °C 994.5 in /  33673.8 hPa SSW 19.3 mph /  31.1 km/h 19.3 mph /  31.1 km/h 88 % 0.0 in /  0 mm
20:38 2.7 °F /  -16.3 °C 1.1 °F /  -17.2 °C 994.5 in /  33673.8 hPa South 14.8 mph /  23.8 km/h 14.8 mph /  23.8 km/h 89 % 0.0 in /  0 mm
20:48 2.7 °F /  -16.3 °C 1.2 °F /  -17.1 °C 994.5 in /  33673.8 hPa SW 25.9 mph /  41.7 km/h 25.9 mph /  41.7 km/h 90 % 0.0 in /  0 mm
20:53 2.7 °F /  -16.3 °C 1.2 °F /  -17.1 °C 994.5 in /  33673.8 hPa South 27.8 mph /  44.7 km/h 27.8 mph /  44.7 km/h 90 % 0.0 in /  0 mm
20:59 2.6 °F /  -16.3 °C 1.0 °F /  -17.2 °C 994.5 in /  33673.8 hPa SW 20.9 mph /  33.6 km/h 20.9 mph /  33.6 km/h 89 % 0.0 in /  0 mm
21:04 2.4 °F /  -16.4 °C 0.8 °F /  -17.3 °C 994.5 in /  33673.8 hPa WSW 22.2 mph /  35.7 km/h 22.2 mph /  35.7 km/h 89 % 0.0 in /  0 mm
21:19 2.2 °F /  -16.6 °C 0.8 °F /  -17.3 °C 994.5 in /  33673.8 hPa SSW 20.4 mph /  32.8 km/h 20.4 mph /  32.8 km/h 90 % 0.0 in /  0 mm
21:34 2.2 °F /  -16.6 °C 0.7 °F /  -17.4 °C 994.5 in /  33673.8 hPa SSW 20.4 mph /  32.8 km/h 20.4 mph /  32.8 km/h 90 % 0.0 in /  0 mm
21:39 2.1 °F /  -16.6 °C 0.8 °F /  -17.3 °C 994.5 in /  33673.8 hPa SSE 18.5 mph /  29.8 km/h 18.5 mph /  29.8 km/h 91 % 0.0 in /  0 mm
21:44 2.1 °F /  -16.6 °C 0.7 °F /  -17.4 °C 994.5 in /  33673.8 hPa South 17.7 mph /  28.5 km/h 17.7 mph /  28.5 km/h 91 % 0.0 in /  0 mm
21:54 2.1 °F /  -16.6 °C 0.7 °F /  -17.4 °C 994.5 in /  33673.8 hPa South 22.5 mph /  36.2 km/h 22.5 mph /  36.2 km/h 91 % 0.0 in /  0 mm
21:59 2.1 °F /  -16.6 °C 0.7 °F /  -17.4 °C 994.8 in /  33683.9 hPa SE 29.6 mph /  47.6 km/h 29.6 mph /  47.6 km/h 91 % 0.0 in /  0 mm
22:04 2.1 °F /  -16.6 °C 0.7 °F /  -17.4 °C 994.5 in /  33673.8 hPa SSW 24.1 mph /  38.8 km/h 24.1 mph /  38.8 km/h 91 % 0.0 in /  0 mm
22:14 2.1 °F /  -16.6 °C 0.7 °F /  -17.4 °C 994.5 in /  33673.8 hPa SSW 18.5 mph /  29.8 km/h 18.5 mph /  29.8 km/h 91 % 0.0 in /  0 mm
22:24 2.1 °F /  -16.6 °C 0.9 °F /  -17.3 °C 994.8 in /  33683.9 hPa SW 29.6 mph /  47.6 km/h 29.6 mph /  47.6 km/h 92 % 0.0 in /  0 mm
22:29 2.1 °F /  -16.6 °C 0.9 °F /  -17.3 °C 994.5 in /  33673.8 hPa SSW 19.3 mph /  31.1 km/h 19.3 mph /  31.1 km/h 92 % 0.0 in /  0 mm
22:34 2.1 °F /  -16.6 °C 0.8 °F /  -17.3 °C 994.5 in /  33673.8 hPa SSW 18.5 mph /  29.8 km/h 18.5 mph /  29.8 km/h 91 % 0.0 in /  0 mm
22:39 2.1 °F /  -16.6 °C 0.8 °F /  -17.3 °C 994.5 in /  33673.8 hPa SSW 25.9 mph /  41.7 km/h 25.9 mph /  41.7 km/h 91 % 0.0 in /  0 mm
22:44 2.1 °F /  -16.6 °C 0.7 °F /  -17.4 °C 994.5 in /  33673.8 hPa South 29.6 mph /  47.6 km/h 29.6 mph /  47.6 km/h 91 % 0.0 in /  0 mm
22:54 2.1 °F /  -16.6 °C 0.8 °F /  -17.3 °C 994.5 in /  33673.8 hPa South 33.3 mph /  53.6 km/h 33.3 mph /  53.6 km/h 91 % 0.0 in /  0 mm
23:04 2.2 °F /  -16.6 °C 0.9 °F /  -17.3 °C 994.5 in /  33673.8 hPa SSW 29.6 mph /  47.6 km/h 29.6 mph /  47.6 km/h 91 % 0.0 in /  0 mm
23:09 2.2 °F /  -16.6 °C 0.8 °F /  -17.3 °C 994.5 in /  33673.8 hPa SSW 25.9 mph /  41.7 km/h 25.9 mph /  41.7 km/h 91 % 0.0 in /  0 mm
23:14 2.2 °F /  -16.6 °C 1.0 °F /  -17.2 °C 994.5 in /  33673.8 hPa WSW 20.9 mph /  33.6 km/h 20.9 mph /  33.6 km/h 92 % 0.0 in /  0 mm
23:24 2.1 °F /  -16.6 °C 0.9 °F /  -17.3 °C 994.5 in /  33673.8 hPa SSW 16.7 mph /  26.9 km/h 16.7 mph /  26.9 km/h 92 % 0.0 in /  0 mm
23:29 2.0 °F /  -16.7 °C 0.8 °F /  -17.3 °C 994.5 in /  33673.8 hPa SSW 20.9 mph /  33.6 km/h 20.9 mph /  33.6 km/h 92 % 0.0 in /  0 mm
23:34 2.0 °F /  -16.7 °C 0.8 °F /  -17.3 °C 994.1 in /  33660.2 hPa South 22.2 mph /  35.7 km/h 22.2 mph /  35.7 km/h 92 % 0.0 in /  0 mm
23:44 2.0 °F /  -16.7 °C 0.8 °F /  -17.3 °C 994.1 in /  33660.2 hPa South 22.2 mph /  35.7 km/h 22.2 mph /  35.7 km/h 92 % 0.0 in /  0 mm
23:49 2.0 °F /  -16.7 °C 0.8 °F /  -17.3 °C 994.5 in /  33673.8 hPa SSW 25.9 mph /  41.7 km/h 25.9 mph /  41.7 km/h 92 % 0.0 in /  0 mm
23:54 2.1 °F /  -16.6 °C 0.9 °F /  -17.3 °C 994.1 in /  33660.2 hPa SW 24.1 mph /  38.8 km/h 24.1 mph /  38.8 km/h 92 % 0.0 in /  0 mm
23:59 2.1 °F /  -16.6 °C 0.9 °F /  -17.3 °C 994.1 in /  33660.2 hPa WSW 24.1 mph /  38.8 km/h 24.1 mph /  38.8 km/h 92 % 0.0 in /  0 mm
Vejr3
tilladelse af Weather Underground - 3.75 mb

script udviklet af  Jim McMurry - jmcmurry@mwt.net tilpasset til dette template  Wim van der Kuil - Leuven-Template.eu

du finder også vores vejrinformationer på:

European Weather Network

Weather Underground

AWEKAS

WeatherlinkIP

Citizen Weather Observer Program (CWOP)

udstyr som vi anvender:

vejrstation
Davis VP2+

vejrprogram
Weather Display

vejrserver
Dell E6400

hjemmeside host
Webhosting.dk

Davis VP2+

Weather Display

Dell E6400

Webhosting.dk